Time;durP1;ratioP1;P1;durP2;ratioP2;P2;SDS_P1;SDS_P2;PMS_P1;PMS_P2;Temp;Humidity;BMP_temperature;BMP_pressure;BME280_temperature;BME280_humidity;BME280_pressure;Samples;Min_cycle;Max_cycle;Signal;HPM_P1;HPM_P2
2022/04/02 00:00:17;;;;;;;23.30;12.60;;;7.20;99.90;;;;;;5041163;28;20666;-88
2022/04/02 00:02:45;;;;;;;19.73;10.90;;;7.20;99.90;;;;;;5041853;28;20289;-89
2022/04/02 00:05:11;;;;;;;18.50;10.23;;;7.10;99.90;;;;;;5041446;28;20670;-88
2022/04/02 00:07:37;;;;;;;16.03;11.30;;;7.10;99.90;;;;;;5059440;28;20202;-88
2022/04/02 00:10:05;;;;;;;21.08;11.13;;;7.10;99.90;;;;;;5042637;28;20736;-87
2022/04/02 00:12:31;;;;;;;16.60;10.48;;;7.10;99.90;;;;;;5041615;28;20234;-87
2022/04/02 00:14:57;;;;;;;18.95;10.30;;;7.10;99.90;;;;;;5042377;28;20661;-88
2022/04/02 00:17:23;;;;;;;18.10;10.90;;;7.10;99.90;;;;;;5079620;28;20205;-89
2022/04/02 00:19:49;;;;;;;22.55;11.60;;;7.10;99.90;;;;;;5062401;28;20602;-87
2022/04/02 00:22:15;;;;;;;13.77;10.37;;;7.10;99.90;;;;;;5080299;28;20258;-89
2022/04/02 00:24:41;;;;;;;20.17;10.40;;;7.10;99.90;;;;;;5064072;28;20185;-87
2022/04/02 00:27:07;;;;;;;18.87;11.13;;;7.10;99.90;;;;;;5062927;28;20292;-89
2022/04/02 00:29:34;;;;;;;19.57;11.10;;;7.10;99.90;;;;;;5094208;28;20225;-88
2022/04/02 00:32:00;;;;;;;15.65;9.60;;;7.10;99.90;;;;;;5064606;28;20228;-89
2022/04/02 00:34:26;;;;;;;22.42;10.82;;;7.10;99.90;;;;;;5059948;28;20223;-88
2022/04/02 00:36:51;;;;;;;27.53;12.43;;;7.10;99.90;;;;;;5068991;28;20185;-88
2022/04/02 00:39:17;;;;;;;17.27;10.40;;;7.10;99.90;;;;;;5060203;28;20440;-89
2022/04/02 00:41:43;;;;;;;16.07;9.33;;;7.10;99.90;;;;;;5077742;28;20215;-88
2022/04/02 00:44:12;;;;;;;16.63;10.20;;;7.10;99.90;;;;;;5077474;28;20169;-86
2022/04/02 00:46:40;;;;;;;18.88;11.77;;;7.00;99.90;;;;;;5077784;28;20178;-88
2022/04/02 00:49:07;;;;;;;19.58;11.93;;;7.00;99.90;;;;;;5077100;28;20208;-88
2022/04/02 00:51:34;;;;;;;18.27;10.77;;;7.00;99.90;;;;;;5077754;28;20208;-88
2022/04/02 00:54:02;;;;;;;18.13;9.95;;;7.00;99.90;;;;;;5061079;28;20260;-88
2022/04/02 00:56:28;;;;;;;15.75;10.05;;;7.00;99.90;;;;;;5078801;28;20630;-89
2022/04/02 00:58:54;;;;;;;15.73;8.60;;;7.00;99.90;;;;;;5060009;28;20193;-88
2022/04/02 01:01:19;;;;;;;18.33;10.63;;;6.90;99.90;;;;;;5060280;28;20434;-88
2022/04/02 01:03:45;;;;;;;16.60;9.10;;;6.90;99.90;;;;;;5060590;28;20411;-89
2022/04/02 01:06:12;;;;;;;21.50;10.87;;;6.90;99.90;;;;;;5061205;28;20181;-90
2022/04/02 01:08:38;;;;;;;14.10;9.77;;;6.80;99.90;;;;;;5061808;28;20626;-89
2022/04/02 01:11:04;;;;;;;19.70;12.80;;;6.80;99.90;;;;;;5080451;28;20232;-89
2022/04/02 01:13:30;;;;;;;19.97;11.13;;;6.80;99.90;;;;;;5079957;28;20609;-87
2022/04/02 01:15:56;;;;;;;19.38;10.68;;;6.80;99.90;;;;;;5057749;28;20441;-88
2022/04/02 01:18:22;;;;;;;18.03;11.70;;;6.70;99.90;;;;;;5040706;28;20237;-88
2022/04/02 01:20:48;;;;;;;23.17;10.82;;;6.70;99.90;;;;;;5056635;28;20418;-88
2022/04/02 01:23:15;;;;;;;17.25;11.77;;;6.70;99.90;;;;;;5056848;28;20197;-88
2022/04/02 01:25:41;;;;;;;20.58;11.90;;;6.60;99.90;;;;;;5056935;28;20217;-88
2022/04/02 01:28:07;;;;;;;18.77;10.40;;;6.60;99.90;;;;;;5039694;28;20201;-88
2022/04/02 01:30:33;;;;;;;20.77;10.02;;;6.50;99.90;;;;;;5056623;28;20193;-88
2022/04/02 01:32:59;;;;;;;19.23;11.90;;;6.50;99.90;;;;;;5056756;28;20194;-88
2022/04/02 01:35:25;;;;;;;20.13;10.15;;;6.40;99.90;;;;;;5056741;28;20509;-87
2022/04/02 01:37:52;;;;;;;24.15;13.43;;;6.40;99.90;;;;;;5039109;28;20229;-88
2022/04/02 01:40:19;;;;;;;19.73;11.50;;;6.40;99.90;;;;;;5039833;28;20180;-87
2022/04/02 01:42:46;;;;;;;18.73;11.63;;;6.30;99.90;;;;;;5041938;28;20208;-88
2022/04/02 01:45:13;;;;;;;19.58;10.80;;;6.30;99.90;;;;;;5041277;28;20177;-88
2022/04/02 01:47:39;;;;;;;25.67;13.98;;;6.20;99.90;;;;;;5040697;28;20561;-88
2022/04/02 01:50:06;;;;;;;23.20;12.63;;;6.20;99.90;;;;;;5039095;28;20174;-87
2022/04/02 01:52:32;;;;;;;22.38;13.18;;;6.20;99.90;;;;;;5039394;28;20268;-88
2022/04/02 01:54:58;;;;;;;21.80;11.70;;;6.20;99.90;;;;;;5040412;28;20173;-88
2022/04/02 01:57:24;;;;;;;22.77;11.73;;;6.20;99.90;;;;;;5040824;28;20208;-88
2022/04/02 01:59:50;;;;;;;24.70;11.82;;;6.20;99.90;;;;;;5057770;28;20181;-88
2022/04/02 02:02:16;;;;;;;20.50;12.13;;;6.20;99.90;;;;;;5039723;28;20675;-88
2022/04/02 02:04:42;;;;;;;19.70;12.60;;;6.20;99.90;;;;;;5039077;28;20378;-88
2022/04/02 02:07:08;;;;;;;18.63;10.82;;;6.10;99.90;;;;;;5040261;28;20298;-88
2022/04/02 02:09:34;;;;;;;29.33;14.70;;;6.10;99.90;;;;;;5041040;28;20174;-88
2022/04/02 02:12:01;;;;;;;20.52;11.45;;;6.10;99.90;;;;;;5057610;28;20569;-88
2022/04/02 02:14:27;;;;;;;28.60;16.42;;;6.10;99.90;;;;;;5040172;28;20174;-88
2022/04/02 02:16:52;;;;;;;20.73;12.33;;;6.10;99.90;;;;;;5053609;28;20250;-88
2022/04/02 02:19:18;;;;;;;21.67;12.30;;;6.00;99.90;;;;;;5077587;28;20424;-88
2022/04/02 02:21:45;;;;;;;28.80;14.83;;;6.00;99.90;;;;;;5079983;28;20200;-88
2022/04/02 02:24:10;;;;;;;27.73;12.20;;;6.00;99.90;;;;;;5083541;28;20408;-88
2022/04/02 02:26:36;;;;;;;26.87;14.27;;;5.90;99.90;;;;;;5057677;28;20272;-88
2022/04/02 02:29:06;;;;;;;34.70;15.77;;;5.90;99.90;;;;;;5074991;28;20169;-89
2022/04/02 02:31:33;;;;;;;19.38;10.70;;;5.80;99.90;;;;;;5057843;28;20961;-88
2022/04/02 02:36:43;;;;;;;23.90;13.70;;;5.70;99.90;;;;;;5075489;28;20285;-89
2022/04/02 02:39:09;;;;;;;28.90;13.10;;;5.70;99.90;;;;;;5057065;28;20177;-86
2022/04/02 02:41:44;;;;;;;25.50;14.50;;;5.70;99.90;;;;;;5057020;28;20213;-88
2022/04/02 02:44:10;;;;;;;30.13;15.25;;;5.70;99.90;;;;;;5057757;28;20756;-88
2022/04/02 02:46:36;;;;;;;30.63;15.63;;;5.60;99.90;;;;;;5075211;28;20177;-89
2022/04/02 02:49:02;;;;;;;35.77;16.97;;;5.60;99.90;;;;;;5075532;28;20177;-87
2022/04/02 02:51:27;;;;;;;26.55;15.65;;;5.60;99.90;;;;;;5057892;28;20448;-88
2022/04/02 02:53:53;;;;;;;30.10;14.30;;;5.60;99.90;;;;;;5057726;28;20192;-88
2022/04/02 02:56:19;;;;;;;26.33;14.20;;;5.50;99.90;;;;;;5057904;28;20207;-88
2022/04/02 02:58:44;;;;;;;22.00;13.70;;;5.50;99.90;;;;;;5058768;28;20197;-88
2022/04/02 03:01:11;;;;;;;24.40;14.43;;;5.50;99.90;;;;;;5057899;28;20272;-88
2022/04/02 03:03:38;;;;;;;26.88;14.93;;;5.40;99.90;;;;;;5075202;28;20404;-88
2022/04/02 03:06:04;;;;;;;29.27;14.38;;;5.40;99.90;;;;;;5057653;28;20189;-88
2022/04/02 03:08:30;;;;;;;26.33;14.60;;;5.40;99.90;;;;;;5076018;28;20658;-89
2022/04/02 03:10:55;;;;;;;26.73;14.40;;;5.40;99.90;;;;;;5077121;28;20205;-88
2022/04/02 03:13:21;;;;;;;25.70;14.90;;;5.40;99.90;;;;;;5058222;28;20418;-88
2022/04/02 03:15:47;;;;;;;29.23;13.90;;;5.40;99.90;;;;;;5051677;28;20410;-88
2022/04/02 03:18:13;;;;;;;23.93;14.10;;;5.40;99.90;;;;;;5037049;28;20288;-88
2022/04/02 03:20:38;;;;;;;28.30;15.27;;;5.40;99.90;;;;;;5054897;28;20178;-88
2022/04/02 03:23:05;;;;;;;30.03;12.33;;;5.40;99.90;;;;;;5039168;28;20193;-88
2022/04/02 03:25:31;;;;;;;30.23;14.93;;;5.30;99.90;;;;;;5055461;28;20418;-88
2022/04/02 03:27:58;;;;;;;26.35;13.18;;;5.40;99.90;;;;;;5055487;28;20293;-88
2022/04/02 03:30:25;;;;;;;23.42;14.55;;;5.40;99.90;;;;;;5055228;28;20218;-88
2022/04/02 03:32:52;;;;;;;30.70;15.75;;;5.40;99.90;;;;;;5037719;28;20224;-88
2022/04/02 03:35:18;;;;;;;28.58;12.63;;;5.40;99.90;;;;;;5039706;28;20217;-88
2022/04/02 03:37:46;;;;;;;24.20;14.30;;;5.30;99.90;;;;;;5039901;28;20190;-88
2022/04/02 03:40:15;;;;;;;30.55;13.85;;;5.40;99.90;;;;;;5048399;28;20174;-88
2022/04/02 03:42:42;;;;;;;22.88;12.88;;;5.40;99.90;;;;;;5055012;28;20205;-88
2022/04/02 03:45:09;;;;;;;24.02;12.52;;;5.40;99.90;;;;;;5054281;28;20201;-89
2022/04/02 03:47:35;;;;;;;25.63;13.35;;;5.30;99.90;;;;;;5036458;28;20193;-88
2022/04/02 03:50:02;;;;;;;22.13;12.52;;;5.30;99.90;;;;;;5036167;28;20181;-87
2022/04/02 03:52:28;;;;;;;22.05;13.05;;;5.30;99.90;;;;;;5036354;28;20272;-88
2022/04/02 03:54:54;;;;;;;29.48;16.48;;;5.30;99.90;;;;;;5036364;28;20178;-88
2022/04/02 03:57:21;;;;;;;21.85;12.68;;;5.30;99.90;;;;;;5054982;28;20202;-88
2022/04/02 03:59:47;;;;;;;25.23;14.20;;;5.20;99.90;;;;;;5055698;28;20174;-88
2022/04/02 04:02:13;;;;;;;28.25;13.90;;;5.20;99.90;;;;;;5055289;28;20205;-88
2022/04/02 04:04:39;;;;;;;27.95;15.65;;;5.20;99.90;;;;;;5036353;28;20185;-88
2022/04/02 04:07:06;;;;;;;29.30;14.15;;;5.20;99.90;;;;;;5036549;28;20270;-89
2022/04/02 04:09:32;;;;;;;27.60;15.88;;;5.20;99.90;;;;;;5054242;28;20178;-87
2022/04/02 04:11:58;;;;;;;25.77;15.23;;;5.20;99.90;;;;;;5054883;28;20694;-88
2022/04/02 04:14:24;;;;;;;25.95;14.00;;;5.20;99.90;;;;;;5037424;28;20182;-88
2022/04/02 04:16:51;;;;;;;28.98;14.40;;;5.20;99.90;;;;;;5050491;28;21974;-88
2022/04/02 04:19:18;;;;;;;26.35;13.32;;;5.20;99.90;;;;;;5074292;28;20221;-88
2022/04/02 04:21:44;;;;;;;28.05;14.20;;;5.20;99.90;;;;;;5056769;28;20188;-88
2022/04/02 04:24:10;;;;;;;25.33;12.67;;;5.30;99.90;;;;;;5076785;28;20165;-87
2022/04/02 04:26:37;;;;;;;26.65;13.90;;;5.20;99.90;;;;;;5060941;28;20428;-89
2022/04/02 04:29:03;;;;;;;27.45;13.60;;;5.20;99.90;;;;;;5078993;28;20180;-88
2022/04/02 04:31:29;;;;;;;22.38;10.90;;;5.20;99.90;;;;;;5060527;28;20224;-87
2022/04/02 04:33:55;;;;;;;32.17;15.57;;;5.20;99.90;;;;;;5060679;28;20192;-88
2022/04/02 04:36:21;;;;;;;22.77;12.88;;;5.30;99.90;;;;;;5079940;28;20472;-88
2022/04/02 04:38:48;;;;;;;25.42;14.23;;;5.30;99.90;;;;;;5080459;28;20268;-89
2022/04/02 04:41:14;;;;;;;23.08;11.10;;;5.30;99.90;;;;;;5062280;28;20272;-89
2022/04/02 04:43:41;;;;;;;20.02;11.82;;;5.30;99.90;;;;;;5066566;28;20302;-89
2022/04/02 04:46:08;;;;;;;26.80;14.77;;;5.30;99.90;;;;;;5090445;28;20241;-86
2022/04/02 04:48:35;;;;;;;28.27;12.88;;;5.30;99.90;;;;;;5059285;28;20545;-88
2022/04/02 04:51:02;;;;;;;24.50;14.73;;;5.30;99.90;;;;;;5059409;28;20209;-88
2022/04/02 04:53:28;;;;;;;33.95;14.00;;;5.30;99.90;;;;;;5059093;28;20196;-88
2022/04/02 04:55:54;;;;;;;22.53;13.13;;;5.20;99.90;;;;;;5059348;28;20181;-88
2022/04/02 04:58:20;;;;;;;21.10;11.43;;;5.20;99.90;;;;;;5077767;28;20476;-88
2022/04/02 05:00:46;;;;;;;22.13;12.30;;;5.20;99.90;;;;;;5059629;28;20461;-88
2022/04/02 05:03:12;;;;;;;24.83;13.52;;;5.20;99.90;;;;;;5059683;28;20193;-88
2022/04/02 05:05:38;;;;;;;24.10;11.50;;;5.20;99.90;;;;;;5059619;28;20192;-88
2022/04/02 05:08:07;;;;;;;26.95;13.20;;;5.20;99.90;;;;;;5059737;28;20205;-89
2022/04/02 05:10:34;;;;;;;21.00;12.43;;;5.20;99.90;;;;;;5060497;28;20181;-88
2022/04/02 05:13:01;;;;;;;27.20;15.88;;;5.10;99.90;;;;;;5059685;28;20628;-88
2022/04/02 05:15:27;;;;;;;18.30;12.70;;;5.10;99.90;;;;;;5075403;28;20581;-88
2022/04/02 05:17:54;;;;;;;25.03;15.90;;;5.10;99.90;;;;;;5039143;28;20233;-89
2022/04/02 05:20:20;;;;;;;25.25;14.38;;;5.10;99.90;;;;;;5039779;28;20389;-89
2022/04/02 05:22:46;;;;;;;23.65;12.73;;;5.00;99.90;;;;;;5040033;28;20537;-88
2022/04/02 05:25:12;;;;;;;19.87;12.30;;;5.00;99.90;;;;;;5057586;28;20192;-88
2022/04/02 05:27:38;;;;;;;21.50;11.80;;;5.00;99.90;;;;;;5040118;28;20693;-88
2022/04/02 05:30:05;;;;;;;27.98;14.38;;;5.00;99.90;;;;;;5057647;28;20414;-88
2022/04/02 05:32:31;;;;;;;25.58;12.02;;;5.00;99.90;;;;;;5057976;28;20285;-88
2022/04/02 05:34:59;;;;;;;21.83;12.60;;;5.00;99.90;;;;;;5042828;28;20174;-87
2022/04/02 05:37:25;;;;;;;21.48;13.10;;;5.00;99.90;;;;;;5060891;28;20204;-88
2022/04/02 05:39:52;;;;;;;19.92;12.07;;;5.00;99.90;;;;;;5062382;28;20178;-87
2022/04/02 05:42:17;;;;;;;24.30;12.63;;;5.00;99.90;;;;;;5057040;28;20212;-88
2022/04/02 05:44:43;;;;;;;24.27;12.83;;;5.00;99.90;;;;;;5039089;28;20174;-87
2022/04/02 05:47:09;;;;;;;26.93;12.23;;;5.00;99.90;;;;;;5039696;28;20198;-88
2022/04/02 05:49:36;;;;;;;24.20;13.77;;;5.00;99.90;;;;;;5047524;28;20272;-87
2022/04/02 05:52:03;;;;;;;29.48;14.57;;;5.00;99.90;;;;;;5058740;28;20237;-88
2022/04/02 05:54:29;;;;;;;21.10;12.02;;;5.00;99.90;;;;;;5057653;28;20208;-88
2022/04/02 05:56:55;;;;;;;20.83;12.90;;;5.00;99.90;;;;;;5056644;28;20228;-88
2022/04/02 05:59:21;;;;;;;29.88;13.07;;;5.00;99.90;;;;;;5057147;28;20534;-86
2022/04/02 06:01:48;;;;;;;25.17;10.80;;;4.90;99.90;;;;;;5057220;28;20192;-88
2022/04/02 06:04:14;;;;;;;28.33;12.48;;;4.90;99.90;;;;;;5056626;28;20180;-87
2022/04/02 06:06:40;;;;;;;20.35;11.95;;;4.90;99.90;;;;;;5055789;28;20190;-89
2022/04/02 06:09:06;;;;;;;20.73;11.37;;;4.90;99.90;;;;;;5074193;28;20236;-87
2022/04/02 06:11:32;;;;;;;24.37;11.00;;;4.90;99.90;;;;;;5057266;28;20469;-88
2022/04/02 06:13:59;;;;;;;21.58;12.10;;;4.90;99.90;;;;;;5074621;28;20169;-88
2022/04/02 06:16:25;;;;;;;21.65;11.45;;;4.90;99.90;;;;;;5065462;28;20224;-88
2022/04/02 06:18:52;;;;;;;25.27;13.68;;;4.90;99.90;;;;;;5055775;28;20238;-88
2022/04/02 06:21:18;;;;;;;21.15;12.50;;;4.90;99.90;;;;;;5047799;28;20200;-89
2022/04/02 06:23:43;;;;;;;22.75;11.40;;;4.90;99.90;;;;;;5071756;28;20208;-88
2022/04/02 06:26:09;;;;;;;28.47;11.43;;;5.00;99.90;;;;;;5057184;28;20638;-89
2022/04/02 06:28:40;;;;;;;23.17;11.30;;;5.00;99.90;;;;;;5075621;28;20393;-87
2022/04/02 06:31:07;;;;;;;23.63;12.93;;;5.00;99.90;;;;;;5059679;28;20674;-88
2022/04/02 06:33:33;;;;;;;18.75;11.95;;;5.00;99.90;;;;;;5068327;28;20197;-87
2022/04/02 06:36:00;;;;;;;27.23;14.00;;;5.10;99.90;;;;;;5056169;28;20709;-89
2022/04/02 06:38:26;;;;;;;20.08;12.35;;;5.10;99.90;;;;;;5056115;28;20189;-88
2022/04/02 06:40:52;;;;;;;20.33;11.40;;;5.10;99.90;;;;;;5075002;28;20623;-88
2022/04/02 06:43:17;;;;;;;22.00;13.13;;;5.10;99.90;;;;;;5074644;28;20189;-88
2022/04/02 06:45:43;;;;;;;26.43;14.10;;;5.10;99.90;;;;;;5057332;28;20433;-89
2022/04/02 06:48:09;;;;;;;21.97;12.10;;;5.10;99.90;;;;;;5057807;28;20196;-88
2022/04/02 06:50:36;;;;;;;28.58;15.50;;;5.10;99.90;;;;;;5058077;28;20396;-88
2022/04/02 06:53:02;;;;;;;18.15;11.18;;;5.20;99.90;;;;;;5057041;28;20266;-88
2022/04/02 06:55:28;;;;;;;27.73;13.97;;;5.20;99.90;;;;;;5075086;28;20181;-89
2022/04/02 06:57:56;;;;;;;28.08;15.75;;;5.20;99.90;;;;;;5057015;28;20462;-87
2022/04/02 07:00:23;;;;;;;18.38;11.52;;;5.30;99.90;;;;;;5057671;28;20204;-89
2022/04/02 07:02:49;;;;;;;24.05;12.43;;;5.40;99.90;;;;;;5057338;28;20199;-88
2022/04/02 07:05:15;;;;;;;21.60;11.48;;;5.40;99.90;;;;;;5057159;28;20177;-89
2022/04/02 07:07:41;;;;;;;17.83;12.05;;;5.50;99.90;;;;;;5057172;28;20227;-88
2022/04/02 07:10:08;;;;;;;22.02;12.18;;;5.50;99.90;;;;;;5053600;28;20658;-88
2022/04/02 07:12:37;;;;;;;21.33;10.95;;;5.50;99.90;;;;;;5075493;28;20220;-88
2022/04/02 07:15:04;;;;;;;20.83;11.43;;;5.50;99.90;;;;;;5058339;28;20598;-89
2022/04/02 07:17:30;;;;;;;22.17;13.10;;;5.60;99.90;;;;;;5038086;28;20232;-89
2022/04/02 07:19:59;;;;;;;18.40;11.70;;;5.60;99.90;;;;;;5062096;28;20224;-88
2022/04/02 07:22:25;;;;;;;29.63;13.98;;;5.70;99.90;;;;;;5075687;28;20670;-88
2022/04/02 07:24:52;;;;;;;20.10;11.13;;;5.80;99.90;;;;;;5059791;28;20169;-89
2022/04/02 07:27:31;;;;;;;25.73;12.60;;;5.90;99.90;;;;;;5081728;28;20732;-87
2022/04/02 07:29:57;;;;;;;20.80;12.30;;;6.00;99.90;;;;;;5056804;28;20203;-89
2022/04/02 07:32:23;;;;;;;20.27;11.68;;;6.10;99.90;;;;;;5074908;28;20236;-88
2022/04/02 07:34:49;;;;;;;25.77;14.93;;;6.20;99.90;;;;;;5056523;28;20173;-87
2022/04/02 07:37:31;;;;;;;23.35;14.02;;;6.30;99.90;;;;;;5075911;28;20433;-88
2022/04/02 07:40:10;;;;;;;20.38;13.23;;;6.40;99.90;;;;;;5057745;28;20184;-87
2022/04/02 07:42:46;;;;;;;25.40;13.50;;;6.50;99.90;;;;;;5056727;28;20258;-89
2022/04/02 07:45:13;;;;;;;32.92;17.02;;;6.70;99.90;;;;;;5056220;28;20173;-87
2022/04/02 07:47:44;;;;;;;25.40;13.20;;;6.90;99.90;;;;;;5058202;28;20200;-88
2022/04/02 07:50:15;;;;;;;23.75;13.60;;;7.10;99.90;;;;;;5055745;28;20492;-88
2022/04/02 07:52:45;;;;;;;19.80;10.70;;;7.20;99.90;;;;;;5063158;28;20239;-88
2022/04/02 07:55:12;;;;;;;18.55;11.07;;;7.40;99.90;;;;;;5057611;28;20685;-88
2022/04/02 07:57:44;;;;;;;19.67;11.35;;;7.50;99.90;;;;;;5055535;28;20693;-88
2022/04/02 08:00:12;;;;;;;16.80;9.75;;;7.50;99.90;;;;;;5059893;28;20222;-89
2022/04/02 08:02:43;;;;;;;21.10;13.77;;;7.50;99.90;;;;;;5080345;28;20609;-89
2022/04/02 08:05:11;;;;;;;19.85;11.00;;;7.50;99.90;;;;;;5062393;28;20254;-89
2022/04/02 08:07:52;;;;;;;18.70;11.38;;;7.40;99.90;;;;;;5062884;28;20203;-89
2022/04/02 08:10:19;;;;;;;22.17;12.75;;;7.40;99.90;;;;;;5079016;28;20177;-88
2022/04/02 08:12:46;;;;;;;23.70;11.88;;;7.40;99.90;;;;;;5076713;28;20213;-89
2022/04/02 08:15:16;;;;;;;22.80;14.90;;;7.40;99.90;;;;;;5075443;28;20635;-90
2022/04/02 08:17:44;;;;;;;30.10;14.10;;;7.50;99.90;;;;;;5055657;28;20199;-88
2022/04/02 08:20:11;;;;;;;23.38;12.77;;;7.60;99.90;;;;;;5037977;28;20185;-88
2022/04/02 08:22:37;;;;;;;16.67;10.63;;;7.60;99.90;;;;;;5056809;28;20205;-89
2022/04/02 08:25:04;;;;;;;23.40;14.75;;;7.60;99.90;;;;;;5039636;28;20170;-88
2022/04/02 08:28:09;;;;;;;17.73;12.68;;;7.70;99.90;;;;;;5040056;28;20206;-89
2022/04/02 08:30:38;;;;;;;20.02;10.93;;;7.70;99.90;;;;;;5040850;28;20302;-89
2022/04/02 08:33:13;;;;;;;19.40;11.18;;;7.70;99.90;;;;;;5060769;28;20712;-88
2022/04/02 08:35:46;;;;;;;20.23;11.77;;;7.70;99.90;;;;;;5060889;28;20664;-88
2022/04/02 08:38:49;;;;;;;17.58;10.95;;;7.60;99.90;;;;;;5070499;28;20696;-89
2022/04/02 08:41:37;;;;;;;21.35;12.05;;;7.50;99.90;;;;;;5059083;28;20239;-89
2022/04/02 08:44:21;;;;;;;18.48;9.80;;;7.50;99.90;;;;;;5077893;28;20252;-89
2022/04/02 08:47:06;;;;;;;16.83;10.48;;;7.40;99.90;;;;;;5077240;28;20553;-88
2022/04/02 08:49:57;;;;;;;17.88;11.93;;;7.40;99.90;;;;;;5058939;28;20173;-89
2022/04/02 08:52:42;;;;;;;19.65;11.65;;;7.30;99.90;;;;;;5058996;28;20232;-88
2022/04/02 08:55:23;;;;;;;16.23;11.35;;;7.30;99.90;;;;;;5077392;28;20170;-87
2022/04/02 08:57:52;;;;;;;18.58;12.15;;;7.30;99.90;;;;;;5058770;28;20505;-88
2022/04/02 09:00:24;;;;;;;20.38;10.80;;;7.30;99.90;;;;;;5076268;28;20180;-89
2022/04/02 09:03:15;;;;;;;18.67;10.90;;;7.30;99.90;;;;;;5057755;28;20292;-89
2022/04/02 09:05:59;;;;;;;21.60;12.98;;;7.40;99.90;;;;;;5076280;28;20177;-87
2022/04/02 09:08:46;;;;;;;17.83;10.18;;;7.40;99.90;;;;;;5060367;28;20212;-88
2022/04/02 09:11:25;;;;;;;21.38;12.52;;;7.40;99.90;;;;;;5076711;28;20545;-89
2022/04/02 09:14:12;;;;;;;17.80;11.18;;;7.50;99.90;;;;;;5061010;28;20207;-89
2022/04/02 09:16:56;;;;;;;30.85;14.52;;;7.50;99.90;;;;;;5062172;28;20191;-88
2022/04/02 09:20:00;;;;;;;18.30;10.02;;;7.60;99.90;;;;;;5062454;28;20236;-89
2022/04/02 09:22:49;;;;;;;26.35;13.88;;;7.60;99.90;;;;;;5072089;28;20213;-88
2022/04/02 09:25:52;;;;;;;19.38;11.70;;;7.70;99.90;;;;;;5061931;28;20185;-89
2022/04/02 09:28:44;;;;;;;20.05;10.77;;;7.70;99.90;;;;;;5076569;28;20280;-88
2022/04/02 09:31:46;;;;;;;24.60;12.15;;;7.80;99.90;;;;;;5076924;28;20205;-89
2022/04/02 09:34:24;;;;;;;27.85;14.35;;;7.90;99.90;;;;;;5059124;28;20713;-88
2022/04/02 09:37:31;;;;;;;23.75;14.95;;;7.90;99.90;;;;;;5058946;28;20292;-88
2022/04/02 09:40:08;;;;;;;17.60;10.98;;;8.00;99.90;;;;;;5076664;28;20167;-88
2022/04/02 09:42:50;;;;;;;19.83;11.75;;;8.00;99.90;;;;;;5077460;28;20211;-89
2022/04/02 09:45:20;;;;;;;19.60;11.50;;;8.10;99.90;;;;;;5077790;28;20172;-89
2022/04/02 09:47:55;;;;;;;18.75;11.27;;;8.20;99.90;;;;;;5059757;28;20189;-89
2022/04/02 09:50:28;;;;;;;21.15;12.38;;;8.30;99.90;;;;;;5059355;28;20538;-89
2022/04/02 09:53:16;;;;;;;19.77;11.40;;;8.40;99.90;;;;;;5076529;28;20313;-88
2022/04/02 09:56:02;;;;;;;19.20;11.10;;;8.50;99.90;;;;;;5060010;28;20208;-89
2022/04/02 09:58:57;;;;;;;19.83;10.88;;;8.60;99.90;;;;;;5059919;28;20209;-89
2022/04/02 10:01:29;;;;;;;18.95;10.55;;;8.70;99.90;;;;;;5060293;28;20688;-87
2022/04/02 10:04:27;;;;;;;16.48;11.20;;;8.70;99.90;;;;;;5077078;28;20245;-88
2022/04/02 10:06:56;;;;;;;16.83;10.90;;;8.70;99.90;;;;;;5077453;28;20201;-88
2022/04/02 10:09:27;;;;;;;15.38;10.05;;;8.80;99.90;;;;;;5061218;28;20169;-89
2022/04/02 10:11:59;;;;;;;20.88;11.95;;;8.80;99.90;;;;;;5079304;28;20278;-88
2022/04/02 10:14:27;;;;;;;18.98;11.70;;;8.80;99.90;;;;;;5078004;28;20174;-88
2022/04/02 10:17:06;;;;;;;19.83;11.50;;;8.90;99.90;;;;;;5060772;28;20209;-89
2022/04/02 10:19:38;;;;;;;21.55;12.18;;;8.80;99.90;;;;;;5058382;28;20224;-89
2022/04/02 10:22:12;;;;;;;16.63;10.10;;;8.80;99.90;;;;;;5060668;28;20209;-89
2022/04/02 10:24:40;;;;;;;22.17;11.50;;;8.80;99.90;;;;;;5078781;28;20231;-87
2022/04/02 10:27:10;;;;;;;17.83;11.25;;;8.90;99.90;;;;;;5077405;28;20193;-88
2022/04/02 10:29:45;;;;;;;18.52;10.32;;;8.90;99.90;;;;;;5062324;28;20181;-89
2022/04/02 10:32:23;;;;;;;19.75;11.75;;;8.90;99.90;;;;;;5059609;28;20231;-87
2022/04/02 10:35:06;;;;;;;20.75;10.40;;;8.90;99.90;;;;;;5060508;28;20164;-87
2022/04/02 10:37:39;;;;;;;18.50;11.45;;;9.00;99.90;;;;;;5063485;28;20551;-90
2022/04/02 10:40:08;;;;;;;21.52;10.90;;;9.00;99.90;;;;;;5075863;28;20669;-89
2022/04/02 10:42:42;;;;;;;19.73;11.90;;;9.00;99.90;;;;;;5056972;28;20197;-88
2022/04/02 10:45:16;;;;;;;22.23;11.70;;;9.10;99.90;;;;;;5074858;28;20172;-89
2022/04/02 10:47:45;;;;;;;21.52;11.77;;;9.20;99.90;;;;;;5074740;28;20254;-88
2022/04/02 10:50:11;;;;;;;21.38;12.45;;;9.30;99.90;;;;;;5056964;28;20201;-89
2022/04/02 10:52:41;;;;;;;21.23;11.75;;;9.40;99.90;;;;;;5055205;28;20221;-88
2022/04/02 10:55:07;;;;;;;16.48;11.80;;;9.50;99.90;;;;;;5070707;28;20173;-89
2022/04/02 10:57:33;;;;;;;28.00;14.88;;;9.60;99.90;;;;;;5058685;28;20197;-88
2022/04/02 11:00:01;;;;;;;17.95;11.23;;;9.60;99.90;;;;;;5077485;28;20603;-89
2022/04/02 11:02:39;;;;;;;21.85;11.93;;;9.70;99.90;;;;;;5057843;28;20215;-88
2022/04/02 11:05:07;;;;;;;17.77;11.95;;;9.80;99.90;;;;;;5058105;28;20173;-88
2022/04/02 11:07:44;;;;;;;16.05;10.93;;;9.80;99.90;;;;;;5059242;28;20189;-89
2022/04/02 11:10:17;;;;;;;16.15;11.10;;;9.90;99.90;;;;;;5077688;28;20168;-87
2022/04/02 11:12:48;;;;;;;16.17;10.55;;;9.90;99.90;;;;;;5060021;28;20223;-89
2022/04/02 11:15:17;;;;;;;25.10;13.65;;;10.00;99.90;;;;;;5076713;28;20172;-89
2022/04/02 11:17:45;;;;;;;18.95;12.27;;;10.00;99.90;;;;;;5038611;28;20197;-89
2022/04/02 11:20:25;;;;;;;14.50;10.50;;;10.10;99.90;;;;;;5036254;28;20206;-89
2022/04/02 11:22:57;;;;;;;17.92;12.07;;;10.20;99.90;;;;;;5036735;28;20527;-87
2022/04/02 11:25:29;;;;;;;18.08;11.07;;;10.20;99.90;;;;;;5036132;28;21872;-89
2022/04/02 11:28:20;;;;;;;17.42;10.82;;;10.20;99.90;;;;;;5036961;28;20277;-87
2022/04/02 11:31:01;;;;;;;18.65;11.30;;;10.20;99.90;;;;;;5011174;28;20217;-88
2022/04/02 11:33:27;;;;;;;16.92;10.80;;;10.20;99.90;;;;;;5035311;28;20207;-89
2022/04/02 11:35:58;;;;;;;22.97;12.17;;;10.20;99.90;;;;;;5037346;28;20179;-89
2022/04/02 11:38:52;;;;;;;13.15;9.52;;;10.10;99.90;;;;;;5020303;28;20693;-88
2022/04/02 11:41:32;;;;;;;18.17;9.88;;;10.00;99.90;;;;;;5027090;28;20185;-89
2022/04/02 11:44:16;;;;;;;17.15;9.30;;;10.00;99.90;;;;;;5016510;28;20273;-88
2022/04/02 11:47:03;;;;;;;18.70;11.13;;;10.00;99.90;;;;;;5034671;28;20175;-89
2022/04/02 11:49:32;;;;;;;16.73;10.23;;;10.00;99.90;;;;;;5034271;28;20244;-89
2022/04/02 11:52:03;;;;;;;18.38;11.15;;;10.00;99.90;;;;;;5016884;28;20229;-89
2022/04/02 11:54:29;;;;;;;19.80;10.10;;;10.10;99.90;;;;;;5016996;28;20182;-88
2022/04/02 11:57:12;;;;;;;18.83;10.93;;;10.20;99.90;;;;;;5016852;28;20205;-89
2022/04/02 11:59:50;;;;;;;18.25;11.95;;;10.30;99.90;;;;;;5018756;28;20527;-87
2022/04/02 12:02:40;;;;;;;19.48;11.73;;;10.40;99.90;;;;;;5035609;28;20194;-89
2022/04/02 12:05:07;;;;;;;15.75;10.20;;;10.40;99.90;;;;;;5034646;28;20174;-89
2022/04/02 12:07:43;;;;;;;16.48;10.20;;;10.50;99.90;;;;;;5017592;28;20210;-89
2022/04/02 12:10:47;;;;;;;13.98;10.25;;;10.50;99.90;;;;;;5037402;28;20635;-89
2022/04/02 12:13:13;;;;;;;22.00;12.80;;;10.50;99.90;;;;;;5019696;28;20223;-89
2022/04/02 12:15:40;;;;;;;20.83;13.65;;;10.50;99.90;;;;;;5018257;28;20225;-88
2022/04/02 12:18:08;;;;;;;18.80;12.88;;;10.60;99.90;;;;;;5021202;28;20241;-88
2022/04/02 12:20:39;;;;;;;15.25;10.95;;;10.60;99.90;;;;;;5037206;28;20185;-89
2022/04/02 12:23:14;;;;;;;18.73;10.82;;;10.60;99.90;;;;;;5057614;28;20197;-88
2022/04/02 12:25:54;;;;;;;18.02;10.07;;;10.60;99.90;;;;;;5039326;28;20197;-89
2022/04/02 12:28:20;;;;;;;17.48;10.55;;;10.60;99.90;;;;;;5057203;28;20527;-89
2022/04/02 12:30:49;;;;;;;20.42;11.98;;;10.50;99.90;;;;;;5041973;28;20186;-89
2022/04/02 12:33:21;;;;;;;15.40;10.45;;;10.60;99.90;;;;;;5047934;28;20202;-89
2022/04/02 12:35:59;;;;;;;17.73;11.30;;;10.50;99.90;;;;;;5035999;28;20197;-89
2022/04/02 12:38:31;;;;;;;14.07;9.15;;;10.50;99.90;;;;;;5033913;28;20196;-89
2022/04/02 12:40:58;;;;;;;16.48;11.00;;;10.40;99.90;;;;;;5051840;28;20178;-88
2022/04/02 12:43:32;;;;;;;20.85;11.40;;;10.40;99.90;;;;;;5034427;28;20201;-88
2022/04/02 12:45:59;;;;;;;19.50;12.88;;;10.30;99.90;;;;;;5037497;28;20181;-89
2022/04/02 12:48:26;;;;;;;20.35;10.55;;;10.20;99.90;;;;;;5056681;28;20255;-88
2022/04/02 12:51:01;;;;;;;16.35;11.23;;;10.20;99.90;;;;;;5037626;28;20186;-90
2022/04/02 12:53:32;;;;;;;19.92;12.48;;;10.00;99.90;;;;;;5038912;28;20744;-87